Time;durP1;ratioP1;P1;durP2;ratioP2;P2;SDS_P1;SDS_P2;PMS_P1;PMS_P2;Temp;Humidity;BMP_temperature;BMP_pressure;BME280_temperature;BME280_humidity;BME280_pressure;Samples;Min_cycle;Max_cycle;Signal;HPM_P1;HPM_P2
2023/07/15 00:01:25;;;;;;;3.92;1.15;;;21.40;58.80;;;;;;4874230;28;92721;-80
2023/07/15 00:03:52;;;;;;;7.13;1.33;;;21.40;58.90;;;;;;4857736;28;93011;-80
2023/07/15 00:06:20;;;;;;;9.57;1.55;;;21.40;58.90;;;;;;4874584;28;93069;-81
2023/07/15 00:08:46;;;;;;;2.33;1.30;;;21.40;58.80;;;;;;4857789;28;95419;-80
2023/07/15 00:11:27;;;;;;;4.80;1.42;;;21.40;58.60;;;;;;4874296;28;92708;-80
2023/07/15 00:13:53;;;;;;;5.90;0.98;;;21.40;58.50;;;;;;4872776;28;94353;-81
2023/07/15 00:16:19;;;;;;;3.75;1.30;;;21.40;58.60;;;;;;4856988;28;96470;-81
2023/07/15 00:18:45;;;;;;;2.17;1.00;;;21.40;58.70;;;;;;4873349;28;96042;-80
2023/07/15 00:21:36;;;;;;;3.95;1.10;;;21.50;58.90;;;;;;4858488;28;92827;-83
2023/07/15 00:24:02;;;;;;;6.60;1.05;;;21.50;58.80;;;;;;4870197;28;93017;-80
2023/07/15 00:26:34;;;;;;;4.93;1.70;;;21.40;58.80;;;;;;4858054;28;96791;-81
2023/07/15 00:29:01;;;;;;;2.95;0.98;;;21.50;58.50;;;;;;4872849;28;96503;-80
2023/07/15 00:31:27;;;;;;;4.70;1.13;;;21.40;58.30;;;;;;4872822;28;92170;-83
2023/07/15 00:33:53;;;;;;;6.30;1.35;;;21.50;58.70;;;;;;4871770;28;93103;-80
2023/07/15 00:36:19;;;;;;;6.47;1.23;;;21.50;58.60;;;;;;4857087;28;96436;-83
2023/07/15 00:38:45;;;;;;;5.85;1.83;;;21.50;58.50;;;;;;4856545;28;95638;-83
2023/07/15 00:41:20;;;;;;;6.85;1.25;;;21.40;58.50;;;;;;4858846;28;92908;-83
2023/07/15 00:44:03;;;;;;;9.30;1.45;;;21.50;58.40;;;;;;4857874;28;92595;-80
2023/07/15 00:46:31;;;;;;;7.07;1.23;;;21.40;58.40;;;;;;4873146;28;96914;-80
2023/07/15 00:49:03;;;;;;;3.92;0.85;;;21.50;58.50;;;;;;4856506;28;96284;-81
2023/07/15 00:51:58;;;;;;;4.55;1.10;;;21.50;58.60;;;;;;4873239;28;92815;-80
2023/07/15 00:54:23;;;;;;;6.65;1.40;;;21.50;58.40;;;;;;4874222;28;92823;-83
2023/07/15 00:56:49;;;;;;;8.38;2.03;;;21.50;58.60;;;;;;4856967;28;96557;-83
2023/07/15 00:59:16;;;;;;;9.10;1.38;;;21.50;58.40;;;;;;4875559;28;95414;-83
2023/07/15 01:01:44;;;;;;;7.28;1.25;;;21.50;58.40;;;;;;4859779;28;92781;-83
2023/07/15 01:04:09;;;;;;;4.65;1.52;;;21.50;58.60;;;;;;4859752;28;93684;-83
2023/07/15 01:06:35;;;;;;;5.88;1.75;;;21.50;58.00;;;;;;4858835;28;96968;-83
2023/07/15 01:09:07;;;;;;;8.63;1.30;;;21.50;58.40;;;;;;4860957;28;96457;-81
2023/07/15 01:11:33;;;;;;;5.20;0.98;;;21.50;58.20;;;;;;4860547;28;92469;-80
2023/07/15 01:13:59;;;;;;;5.40;1.40;;;21.50;58.60;;;;;;4859692;28;92333;-80
2023/07/15 01:16:24;;;;;;;3.53;1.40;;;21.50;58.20;;;;;;4875034;28;96686;-83
2023/07/15 01:18:51;;;;;;;9.60;1.77;;;21.50;58.10;;;;;;4860984;28;92452;-83
2023/07/15 01:21:19;;;;;;;7.80;1.77;;;21.60;58.10;;;;;;4860834;28;91948;-80
2023/07/15 01:23:45;;;;;;;3.42;1.00;;;21.70;58.20;;;;;;4859112;28;92558;-81
2023/07/15 01:26:10;;;;;;;7.13;1.23;;;21.70;58.20;;;;;;4860122;28;96388;-80
2023/07/15 01:28:37;;;;;;;2.22;1.45;;;21.70;58.00;;;;;;4859346;28;95179;-81
2023/07/15 01:31:03;;;;;;;6.93;1.33;;;21.70;58.30;;;;;;4877943;28;92445;-83
2023/07/15 01:33:29;;;;;;;5.20;1.10;;;21.70;58.10;;;;;;4859546;28;92335;-83
2023/07/15 01:35:55;;;;;;;5.45;1.35;;;21.70;57.90;;;;;;4860412;28;96405;-82
2023/07/15 01:38:20;;;;;;;7.85;1.23;;;21.80;58.30;;;;;;4860751;28;96217;-83
2023/07/15 01:40:46;;;;;;;2.55;1.08;;;21.70;58.10;;;;;;4860195;28;92697;-80
2023/07/15 01:43:11;;;;;;;6.88;1.20;;;21.80;58.10;;;;;;4877781;28;92994;-82
2023/07/15 01:45:39;;;;;;;6.03;1.02;;;21.80;58.60;;;;;;4876065;28;95992;-83
2023/07/15 01:48:08;;;;;;;2.42;1.00;;;21.80;58.30;;;;;;4875073;28;96570;-80
2023/07/15 01:50:35;;;;;;;8.45;1.08;;;21.80;58.30;;;;;;4860191;28;92287;-80
2023/07/15 01:53:02;;;;;;;5.28;1.48;;;21.80;57.70;;;;;;4859920;28;94225;-80
2023/07/15 01:55:28;;;;;;;3.58;1.00;;;21.80;58.00;;;;;;4860225;28;95459;-80
2023/07/15 01:57:53;;;;;;;2.95;0.98;;;21.90;58.00;;;;;;4859609;28;96351;-80
2023/07/15 02:00:20;;;;;;;5.00;1.52;;;21.90;57.70;;;;;;4876056;28;92539;-80
2023/07/15 02:02:46;;;;;;;4.65;1.52;;;22.00;58.10;;;;;;4859098;28;92965;-80
2023/07/15 02:05:12;;;;;;;7.78;1.33;;;22.00;58.20;;;;;;4859388;28;96081;-83
2023/07/15 02:07:37;;;;;;;4.53;1.38;;;22.00;57.90;;;;;;4858471;28;96856;-80
2023/07/15 02:10:03;;;;;;;5.05;1.20;;;22.00;58.00;;;;;;4858878;28;92159;-80
2023/07/15 02:12:29;;;;;;;3.55;1.20;;;22.00;57.90;;;;;;4858806;28;92232;-81
2023/07/15 02:14:55;;;;;;;4.50;1.35;;;22.00;58.00;;;;;;4858553;28;96825;-82
2023/07/15 02:17:22;;;;;;;8.80;1.45;;;22.00;58.10;;;;;;4859268;28;95114;-83
2023/07/15 02:19:49;;;;;;;4.45;1.10;;;22.00;57.70;;;;;;4875047;28;92958;-80
2023/07/15 02:22:14;;;;;;;3.50;1.05;;;22.00;57.70;;;;;;4859167;28;92280;-80
2023/07/15 02:24:40;;;;;;;3.45;0.95;;;22.00;57.90;;;;;;4876178;28;93628;-80
2023/07/15 02:27:06;;;;;;;16.48;1.48;;;22.10;58.10;;;;;;4874071;28;96263;-80
2023/07/15 02:29:31;;;;;;;5.60;1.10;;;22.00;57.60;;;;;;4860071;28;92634;-81
2023/07/15 02:31:57;;;;;;;5.38;1.08;;;22.00;57.50;;;;;;4859500;28;92705;-81
2023/07/15 02:34:23;;;;;;;6.65;1.38;;;22.00;57.70;;;;;;4859116;28;94309;-81
2023/07/15 02:36:48;;;;;;;3.33;1.05;;;22.00;57.70;;;;;;4875355;28;92338;-80
2023/07/15 02:39:14;;;;;;;3.08;1.02;;;22.00;57.70;;;;;;4859373;28;93049;-81
2023/07/15 02:41:40;;;;;;;5.65;1.23;;;22.00;57.80;;;;;;4858873;28;93726;-81
2023/07/15 02:44:05;;;;;;;7.18;1.10;;;21.90;57.90;;;;;;4876799;28;98378;-81
2023/07/15 02:46:31;;;;;;;3.42;1.08;;;21.90;58.20;;;;;;4858502;28;96293;-80
2023/07/15 02:48:57;;;;;;;10.07;1.50;;;21.90;58.30;;;;;;4859107;28;92985;-81
2023/07/15 02:51:24;;;;;;;2.25;0.80;;;21.80;58.30;;;;;;4875200;28;92863;-81
2023/07/15 02:53:50;;;;;;;4.20;1.08;;;21.80;58.50;;;;;;4858299;28;96978;-81
2023/07/15 02:56:15;;;;;;;4.35;1.10;;;21.70;58.80;;;;;;4859497;28;95479;-81
2023/07/15 02:58:41;;;;;;;3.10;1.02;;;21.70;58.80;;;;;;4859874;28;91736;-81
2023/07/15 03:01:08;;;;;;;7.78;1.10;;;21.60;58.80;;;;;;4858326;28;92549;-81
2023/07/15 03:03:34;;;;;;;5.53;1.20;;;21.60;58.90;;;;;;4874418;28;94340;-81
2023/07/15 03:06:00;;;;;;;4.95;0.98;;;21.60;59.20;;;;;;4873022;28;95986;-81
2023/07/15 03:08:25;;;;;;;3.10;1.08;;;21.50;59.30;;;;;;4859299;28;92777;-81
2023/07/15 03:10:51;;;;;;;7.05;1.10;;;21.50;59.40;;;;;;4858933;28;92850;-81
2023/07/15 03:13:17;;;;;;;7.20;1.05;;;21.40;59.70;;;;;;4858064;28;95938;-81
2023/07/15 03:15:43;;;;;;;3.85;1.48;;;21.40;59.80;;;;;;4875472;28;93330;-81
2023/07/15 03:18:08;;;;;;;6.78;1.15;;;21.30;59.80;;;;;;4874348;28;92567;-81
2023/07/15 03:20:35;;;;;;;8.50;1.42;;;21.30;60.00;;;;;;4858861;28;92525;-81
2023/07/15 03:23:00;;;;;;;3.60;1.10;;;21.30;60.20;;;;;;4858952;28;96057;-82
2023/07/15 03:25:26;;;;;;;8.90;1.30;;;21.20;60.50;;;;;;4873843;28;95696;-82
2023/07/15 03:27:51;;;;;;;9.73;1.65;;;21.20;60.40;;;;;;4859439;28;92773;-81
2023/07/15 03:30:18;;;;;;;5.55;0.90;;;21.10;60.50;;;;;;4858247;28;93747;-82
2023/07/15 03:32:45;;;;;;;9.43;1.35;;;21.10;60.80;;;;;;4859495;28;96968;-81
2023/07/15 03:35:12;;;;;;;5.53;1.50;;;21.00;60.90;;;;;;4858809;28;96411;-83
2023/07/15 03:37:39;;;;;;;1.65;1.17;;;21.00;61.20;;;;;;4873995;28;93279;-81
2023/07/15 03:40:07;;;;;;;5.78;1.92;;;21.00;61.40;;;;;;4875245;28;92480;-82
2023/07/15 03:42:37;;;;;;;6.63;2.25;;;20.90;61.50;;;;;;4856639;28;96660;-82
2023/07/15 03:45:03;;;;;;;2.05;1.10;;;20.90;61.60;;;;;;4873821;28;94220;-82
2023/07/15 03:47:29;;;;;;;5.78;1.38;;;20.80;61.70;;;;;;4860050;28;91892;-82
2023/07/15 03:49:55;;;;;;;5.93;1.35;;;20.80;61.90;;;;;;4858362;28;92129;-82
2023/07/15 03:52:20;;;;;;;5.07;1.48;;;20.80;62.10;;;;;;4876551;28;92909;-82
2023/07/15 03:54:46;;;;;;;5.45;1.23;;;20.70;62.30;;;;;;4874543;28;93925;-82
2023/07/15 03:57:12;;;;;;;5.85;0.80;;;20.70;62.30;;;;;;4858593;28;92679;-82
2023/07/15 03:59:37;;;;;;;6.43;1.40;;;20.70;62.60;;;;;;4876274;28;92828;-82
2023/07/15 04:02:03;;;;;;;6.07;1.58;;;20.70;62.80;;;;;;4857482;28;95510;-82
2023/07/15 04:04:29;;;;;;;5.00;1.48;;;20.60;63.20;;;;;;4874665;28;94710;-83
2023/07/15 04:06:56;;;;;;;5.20;1.35;;;20.60;63.20;;;;;;4858507;28;92722;-83
2023/07/15 04:09:22;;;;;;;5.40;1.67;;;20.60;63.30;;;;;;4857332;28;93103;-83
2023/07/15 04:11:47;;;;;;;7.95;1.20;;;20.60;63.40;;;;;;4858275;28;96217;-83
2023/07/15 04:14:13;;;;;;;1.85;1.10;;;20.60;63.50;;;;;;4874624;28;94874;-82
2023/07/15 04:16:39;;;;;;;5.82;0.90;;;20.60;63.40;;;;;;4874201;28;92804;-82
2023/07/15 04:19:05;;;;;;;3.08;1.20;;;20.60;63.70;;;;;;4856875;28;94517;-82
2023/07/15 04:21:31;;;;;;;3.35;1.50;;;20.60;64.00;;;;;;4875071;28;94545;-82
2023/07/15 04:23:57;;;;;;;6.57;1.02;;;20.60;65.20;;;;;;4857590;28;95526;-82
2023/07/15 04:26:25;;;;;;;3.38;1.40;;;20.50;64.30;;;;;;4859240;28;92700;-82
2023/07/15 04:28:56;;;;;;;4.70;1.10;;;20.50;64.40;;;;;;4873617;28;92993;-83
2023/07/15 04:31:22;;;;;;;6.10;1.50;;;20.50;64.60;;;;;;4871888;28;96876;-83
2023/07/15 04:33:50;;;;;;;5.97;1.23;;;20.40;65.20;;;;;;4873570;28;96186;-82
2023/07/15 04:36:18;;;;;;;6.90;1.13;;;20.40;65.20;;;;;;4861703;28;92270;-83
2023/07/15 04:38:44;;;;;;;3.63;1.30;;;20.40;65.50;;;;;;4859567;28;92796;-83
2023/07/15 04:41:10;;;;;;;5.30;1.75;;;20.40;65.70;;;;;;4861418;28;98136;-82
2023/07/15 04:43:36;;;;;;;5.70;1.52;;;20.40;65.80;;;;;;4876689;28;96335;-82
2023/07/15 04:46:02;;;;;;;5.65;1.33;;;20.30;66.00;;;;;;4876788;28;92812;-81
2023/07/15 04:48:28;;;;;;;7.75;1.73;;;20.40;66.70;;;;;;4860274;28;92739;-82
2023/07/15 04:50:55;;;;;;;5.15;1.35;;;20.30;66.40;;;;;;4860370;28;95536;-82
2023/07/15 04:53:21;;;;;;;5.57;1.38;;;20.30;67.00;;;;;;4861708;28;94704;-83
2023/07/15 04:55:48;;;;;;;6.40;1.20;;;20.30;67.30;;;;;;4862029;28;92991;-83
2023/07/15 04:58:20;;;;;;;8.18;1.50;;;20.30;67.30;;;;;;4879001;28;92484;-82
2023/07/15 05:00:46;;;;;;;4.78;1.40;;;20.30;67.20;;;;;;4861761;28;95628;-82
2023/07/15 05:03:12;;;;;;;5.90;1.27;;;20.30;67.90;;;;;;4861230;28;95913;-82
2023/07/15 05:05:41;;;;;;;5.07;1.10;;;20.30;68.10;;;;;;4878816;28;92366;-82
2023/07/15 05:08:12;;;;;;;9.40;1.23;;;20.40;68.10;;;;;;4859811;28;94050;-82
2023/07/15 05:10:41;;;;;;;4.38;1.13;;;20.40;68.40;;;;;;4860865;28;99205;-82
2023/07/15 05:13:07;;;;;;;3.60;0.85;;;20.40;68.30;;;;;;4876187;28;94616;-82
2023/07/15 05:15:35;;;;;;;8.52;1.27;;;20.50;68.80;;;;;;4860246;28;92112;-82
2023/07/15 05:18:00;;;;;;;2.50;1.20;;;20.50;68.70;;;;;;4860285;28;92874;-82
2023/07/15 05:20:26;;;;;;;3.05;1.10;;;20.60;68.70;;;;;;4860937;28;96981;-82
2023/07/15 05:22:52;;;;;;;4.07;1.88;;;20.70;69.50;;;;;;4860973;28;96053;-82
2023/07/15 05:25:19;;;;;;;4.72;1.30;;;20.80;69.20;;;;;;4860216;28;92186;-82
2023/07/15 05:27:44;;;;;;;7.00;1.77;;;20.80;68.50;;;;;;4875304;28;92655;-82
2023/07/15 05:30:10;;;;;;;2.53;1.33;;;20.90;68.60;;;;;;4858860;28;96878;-83
2023/07/15 05:32:37;;;;;;;2.28;1.25;;;21.00;67.90;;;;;;4876696;28;94133;-82
2023/07/15 05:35:03;;;;;;;2.47;1.33;;;21.10;67.70;;;;;;4875905;28;92978;-82
2023/07/15 05:37:28;;;;;;;5.07;1.77;;;21.20;68.20;;;;;;4876726;28;92656;-82
2023/07/15 05:39:54;;;;;;;5.13;1.30;;;21.20;68.40;;;;;;4859488;28;96265;-82
2023/07/15 05:42:20;;;;;;;4.38;1.33;;;21.30;67.50;;;;;;4859916;28;96179;-82
2023/07/15 05:44:46;;;;;;;5.45;1.50;;;21.40;67.60;;;;;;4861141;28;92238;-82
2023/07/15 05:47:11;;;;;;;6.22;1.35;;;21.50;66.70;;;;;;4861055;28;92722;-82
2023/07/15 05:49:37;;;;;;;4.82;1.60;;;21.60;67.40;;;;;;4859739;28;96887;-82
2023/07/15 05:52:03;;;;;;;3.85;1.10;;;21.70;66.70;;;;;;4859631;28;95625;-81
2023/07/15 05:54:28;;;;;;;6.93;1.15;;;21.80;66.10;;;;;;4859637;28;93025;-82
2023/07/15 05:56:54;;;;;;;6.05;1.45;;;22.00;66.40;;;;;;4859055;28;93582;-82
2023/07/15 05:59:20;;;;;;;5.70;1.08;;;22.10;65.30;;;;;;4860130;28;96345;-82
2023/07/15 06:01:46;;;;;;;6.20;1.35;;;22.30;65.60;;;;;;4859453;28;95951;-82
2023/07/15 06:04:12;;;;;;;6.45;1.15;;;22.40;65.30;;;;;;4860350;28;93156;-82
2023/07/15 06:06:37;;;;;;;3.65;1.08;;;22.60;65.10;;;;;;4862739;28;93063;-91
2023/07/15 06:09:03;;;;;;;6.85;1.10;;;22.70;63.60;;;;;;4871992;28;96557;-86
2023/07/15 06:11:29;;;;;;;6.38;0.98;;;22.70;64.00;;;;;;4867362;28;93778;-92
2023/07/15 06:13:55;;;;;;;7.60;1.20;;;22.90;64.20;;;;;;4877038;28;91913;-91
2023/07/15 06:16:21;;;;;;;5.50;1.20;;;22.90;63.50;;;;;;4861684;28;92747;-87
2023/07/15 06:18:46;;;;;;;3.33;1.38;;;23.00;63.20;;;;;;4863391;28;96638;-89
2023/07/15 06:21:13;;;;;;;2.45;1.20;;;23.10;62.50;;;;;;4862692;28;96364;-86
2023/07/15 06:23:44;;;;;;;3.58;1.13;;;23.20;64.30;;;;;;4880316;28;92719;-89
2023/07/15 06:26:10;;;;;;;5.43;1.40;;;23.20;62.80;;;;;;4839040;28;92802;-86
2023/07/15 06:28:41;;;;;;;7.18;1.20;;;23.30;63.40;;;;;;4885379;28;95654;-88
2023/07/15 06:31:10;;;;;;;5.38;1.40;;;23.40;62.90;;;;;;4867930;28;96006;-88
2023/07/15 06:33:39;;;;;;;2.42;1.00;;;23.40;63.50;;;;;;4866211;28;92749;-85
2023/07/15 06:36:06;;;;;;;7.78;1.23;;;23.50;63.70;;;;;;4862859;28;92795;-88
2023/07/15 06:38:32;;;;;;;3.42;1.10;;;23.50;63.30;;;;;;4861406;28;94696;-87
2023/07/15 06:40:58;;;;;;;6.32;1.23;;;23.50;63.00;;;;;;4860722;28;94543;-88
2023/07/15 06:43:24;;;;;;;6.60;1.23;;;23.60;63.30;;;;;;4876304;28;92969;-86
2023/07/15 06:45:50;;;;;;;4.88;1.00;;;23.60;63.50;;;;;;4877859;28;93668;-88
2023/07/15 06:48:18;;;;;;;5.10;1.20;;;23.70;62.20;;;;;;4890005;28;95948;-87
2023/07/15 06:50:44;;;;;;;4.78;1.02;;;23.60;62.40;;;;;;4886381;28;94128;-86
2023/07/15 06:53:13;;;;;;;4.53;1.45;;;23.70;63.10;;;;;;4873373;28;92580;-87
2023/07/15 06:55:38;;;;;;;5.60;1.48;;;23.70;62.60;;;;;;4869950;28;92411;-87
2023/07/15 06:58:45;;;;;;;4.22;1.23;;;23.80;62.70;;;;;;4869031;28;95526;-89
2023/07/15 07:01:11;;;;;;;2.75;1.30;;;23.90;62.40;;;;;;4828211;28;93934;-87
2023/07/15 07:03:37;;;;;;;1.63;1.15;;;23.90;62.50;;;;;;4859768;28;92337;-87
2023/07/15 07:06:03;;;;;;;3.90;1.13;;;23.90;62.80;;;;;;4874828;28;92951;-87
2023/07/15 07:08:28;;;;;;;4.65;1.45;;;24.00;61.50;;;;;;4860209;28;95100;-87
2023/07/15 07:10:54;;;;;;;2.33;0.90;;;24.00;62.10;;;;;;4858064;28;93908;-87
2023/07/15 07:13:20;;;;;;;8.95;1.35;;;24.00;62.50;;;;;;4859564;28;92564;-87
2023/07/15 07:15:47;;;;;;;2.42;0.90;;;24.00;62.40;;;;;;4859107;28;92716;-87
2023/07/15 07:18:13;;;;;;;5.35;1.08;;;24.00;62.40;;;;;;4874261;28;95808;-86
2023/07/15 07:20:39;;;;;;;7.78;1.50;;;24.00;62.20;;;;;;4876077;28;96033;-87
2023/07/15 07:23:08;;;;;;;2.25;1.13;;;23.90;62.40;;;;;;4858981;28;92807;-89
2023/07/15 07:25:36;;;;;;;2.42;1.00;;;23.90;62.80;;;;;;4858920;28;92859;-86
2023/07/15 07:28:02;;;;;;;1.95;0.95;;;23.90;63.60;;;;;;4857282;28;95554;-87
2023/07/15 07:30:28;;;;;;;4.30;1.15;;;24.00;63.90;;;;;;4859213;28;95100;-88
2023/07/15 07:32:54;;;;;;;9.52;1.42;;;24.00;63.30;;;;;;4873023;28;92167;-85
2023/07/15 07:35:19;;;;;;;3.50;0.88;;;24.10;63.80;;;;;;4861214;28;93316;-86
2023/07/15 07:37:45;;;;;;;3.38;1.02;;;24.20;63.60;;;;;;4858256;28;95904;-86
2023/07/15 07:40:11;;;;;;;5.68;1.45;;;24.20;63.10;;;;;;4860131;28;96285;-86
2023/07/15 07:42:37;;;;;;;2.03;0.95;;;24.30;62.80;;;;;;4858899;28;92687;-83
2023/07/15 07:45:12;;;;;;;3.85;1.08;;;24.30;62.70;;;;;;4859349;28;92869;-84
2023/07/15 07:47:38;;;;;;;4.10;1.00;;;24.40;63.20;;;;;;4875222;28;97415;-84
2023/07/15 07:50:04;;;;;;;3.42;0.90;;;24.40;63.40;;;;;;4857338;28;95256;-83
2023/07/15 07:52:30;;;;;;;5.72;1.25;;;24.30;63.30;;;;;;4858962;28;92299;-83
2023/07/15 07:54:55;;;;;;;5.43;1.05;;;24.30;63.40;;;;;;4858441;28;92840;-85
2023/07/15 07:57:21;;;;;;;8.10;1.67;;;24.20;64.00;;;;;;4857616;28;96847;-84
2023/07/15 07:59:46;;;;;;;3.92;0.90;;;24.20;65.00;;;;;;4858714;28;94583;-83
2023/07/15 08:02:12;;;;;;;6.03;1.15;;;24.20;64.20;;;;;;4859987;28;92927;-84
2023/07/15 08:04:38;;;;;;;3.40;0.80;;;24.30;65.60;;;;;;4858128;28;92664;-83
2023/07/15 08:07:03;;;;;;;4.40;1.00;;;24.30;66.20;;;;;;4857830;28;96582;-85
2023/07/15 08:09:29;;;;;;;8.25;1.77;;;24.30;69.30;;;;;;4862310;28;96434;-83
2023/07/15 08:11:55;;;;;;;3.33;0.98;;;24.40;69.00;;;;;;4862242;28;92851;-84
2023/07/15 08:14:21;;;;;;;2.13;0.65;;;24.50;69.20;;;;;;4862521;28;92675;-84
2023/07/15 08:16:47;;;;;;;13.70;1.52;;;24.60;68.20;;;;;;4861096;28;96008;-85
2023/07/15 08:19:13;;;;;;;2.40;0.98;;;24.70;67.50;;;;;;4877187;28;95429;-86
2023/07/15 08:21:41;;;;;;;3.17;0.95;;;24.70;66.70;;;;;;4878217;28;92649;-85
2023/07/15 08:24:07;;;;;;;3.33;0.90;;;24.80;65.00;;;;;;4863013;28;93304;-78
2023/07/15 08:26:33;;;;;;;3.58;1.08;;;24.90;65.30;;;;;;4864108;28;94091;-81
2023/07/15 08:29:02;;;;;;;3.25;0.95;;;24.90;64.70;;;;;;4880389;28;92587;-79
2023/07/15 08:31:28;;;;;;;2.28;1.00;;;25.00;64.50;;;;;;4881376;28;92648;-79
2023/07/15 08:33:53;;;;;;;2.05;0.90;;;25.00;65.40;;;;;;4880969;28;92902;-78
2023/07/15 08:36:20;;;;;;;5.68;0.98;;;25.10;67.90;;;;;;4877169;28;94331;-80
2023/07/15 08:38:45;;;;;;;2.20;1.10;;;25.20;64.30;;;;;;4862632;28;94917;-82
2023/07/15 08:41:12;;;;;;;2.08;1.00;;;25.20;64.30;;;;;;4864185;28;91950;-82
2023/07/15 08:43:39;;;;;;;3.65;1.08;;;25.20;64.10;;;;;;4863289;28;92572;-82
2023/07/15 08:46:23;;;;;;;2.15;0.98;;;25.20;64.50;;;;;;4864089;28;94323;-82
2023/07/15 08:48:49;;;;;;;2.85;1.02;;;25.20;65.80;;;;;;4862355;28;94992;-82
2023/07/15 08:51:15;;;;;;;3.38;0.80;;;25.10;65.20;;;;;;4863067;28;92278;-82
2023/07/15 08:53:43;;;;;;;3.42;1.00;;;25.10;65.60;;;;;;4863441;28;93018;-83
2023/07/15 08:56:09;;;;;;;1.98;0.95;;;25.20;65.30;;;;;;4862786;28;95627;-83
2023/07/15 08:58:35;;;;;;;5.72;1.40;;;25.40;64.30;;;;;;4861611;28;95964;-82
2023/07/15 09:01:04;;;;;;;3.33;1.00;;;25.50;64.80;;;;;;4862614;28;92167;-84
2023/07/15 09:03:29;;;;;;;2.85;1.00;;;25.60;63.90;;;;;;4860982;28;92828;-83
2023/07/15 09:05:55;;;;;;;2.28;0.85;;;25.70;62.80;;;;;;4862465;28;95762;-83
2023/07/15 09:08:21;;;;;;;5.97;1.25;;;25.80;63.90;;;;;;4862774;28;94222;-83
2023/07/15 09:10:53;;;;;;;2.90;0.90;;;26.00;64.00;;;;;;4864149;28;92218;-82
2023/07/15 09:13:32;;;;;;;3.77;1.23;;;26.20;63.10;;;;;;4860264;28;93499;-82
2023/07/15 09:15:59;;;;;;;3.53;1.10;;;26.40;62.10;;;;;;4876024;28;96401;-80
2023/07/15 09:18:25;;;;;;;4.03;1.55;;;26.50;61.10;;;;;;4861655;28;93791;-81
2023/07/15 09:21:05;;;;;;;2.55;1.05;;;26.30;60.90;;;;;;4860612;28;92614;-81
2023/07/15 09:23:31;;;;;;;4.10;0.82;;;26.30;62.60;;;;;;4860805;28;92722;-80
2023/07/15 09:26:00;;;;;;;2.55;1.13;;;26.20;62.60;;;;;;4859188;28;96537;-80
2023/07/15 09:28:26;;;;;;;3.53;1.02;;;26.10;62.90;;;;;;4874669;28;96201;-80
2023/07/15 09:30:52;;;;;;;4.55;1.10;;;26.00;63.90;;;;;;4876885;28;91820;-80
2023/07/15 09:33:40;;;;;;;4.10;1.08;;;25.90;64.70;;;;;;4849929;28;92856;-80
2023/07/15 09:36:06;;;;;;;9.23;1.13;;;25.90;63.90;;;;;;4875997;28;92384;-79
2023/07/15 09:38:34;;;;;;;4.85;0.95;;;25.70;63.10;;;;;;4877539;28;93475;-80
2023/07/15 09:41:01;;;;;;;3.65;0.50;;;25.60;64.50;;;;;;4876900;28;94363;-82
2023/07/15 09:43:47;;;;;;;1.83;0.73;;;25.50;64.70;;;;;;4860367;28;92761;-81
2023/07/15 09:46:15;;;;;;;3.95;0.80;;;25.50;65.20;;;;;;4876853;28;93307;-80
2023/07/15 09:48:42;;;;;;;1.75;0.70;;;25.50;64.60;;;;;;4876768;28;96494;-81
2023/07/15 09:51:11;;;;;;;7.40;0.80;;;25.30;64.90;;;;;;4859243;28;92744;-80
2023/07/15 09:53:38;;;;;;;2.10;0.70;;;25.40;66.00;;;;;;4861018;28;93008;-81
2023/07/15 09:56:06;;;;;;;6.45;1.02;;;25.50;66.50;;;;;;4876852;28;92977;-81
2023/07/15 09:58:36;;;;;;;2.58;0.85;;;25.70;65.10;;;;;;4860375;28;94600;-81
2023/07/15 10:01:14;;;;;;;4.50;0.70;;;25.90;64.20;;;;;;4874564;28;93345;-81
2023/07/15 10:03:50;;;;;;;2.15;0.73;;;26.10;64.70;;;;;;4875040;28;94036;-81
2023/07/15 10:06:17;;;;;;;4.10;0.95;;;26.40;63.40;;;;;;4875574;28;97485;-81
2023/07/15 10:08:44;;;;;;;6.28;1.08;;;26.50;62.50;;;;;;4860522;28;97111;-81
2023/07/15 10:11:10;;;;;;;3.83;1.08;;;26.60;61.30;;;;;;4861253;28;92820;-81
2023/07/15 10:13:37;;;;;;;5.72;1.30;;;26.70;60.80;;;;;;4875549;28;92685;-80
2023/07/15 10:16:03;;;;;;;1.45;0.80;;;26.90;61.00;;;;;;4859016;28;95189;-81
2023/07/15 10:18:32;;;;;;;2.60;1.30;;;27.00;57.60;;;;;;4860901;28;96062;-81
2023/07/15 10:21:02;;;;;;;4.57;1.52;;;27.10;55.20;;;;;;4861408;28;92480;-81
2023/07/15 10:23:29;;;;;;;1.70;1.00;;;27.10;56.50;;;;;;4878919;28;92573;-81
2023/07/15 10:26:06;;;;;;;3.33;1.00;;;27.00;56.70;;;;;;4876590;28;93613;-81
2023/07/15 10:28:38;;;;;;;4.22;1.40;;;26.90;57.40;;;;;;4860864;28;94729;-81
2023/07/15 10:31:14;;;;;;;3.40;1.50;;;27.00;57.90;;;;;;4875402;28;92300;-81
2023/07/15 10:33:57;;;;;;;3.10;1.30;;;27.00;56.00;;;;;;4861620;28;95558;-81
2023/07/15 10:36:35;;;;;;;1.60;1.10;;;27.00;58.40;;;;;;4874343;28;96369;-84
2023/07/15 10:39:20;;;;;;;2.38;1.10;;;27.00;56.50;;;;;;4877092;28;96138;-82
2023/07/15 10:41:51;;;;;;;4.93;1.40;;;27.20;58.00;;;;;;4877770;28;92676;-85
2023/07/15 10:44:20;;;;;;;1.95;1.25;;;27.30;57.10;;;;;;4879216;28;92731;-82
2023/07/15 10:46:49;;;;;;;5.95;1.30;;;27.40;56.50;;;;;;4861455;28;94824;-80
2023/07/15 10:49:15;;;;;;;4.10;1.30;;;27.50;57.20;;;;;;4874572;28;95688;-81
2023/07/15 10:51:47;;;;;;;3.13;1.23;;;27.60;57.00;;;;;;5005907;27;86188;-79
2023/07/15 10:54:27;;;;;;;5.13;1.35;;;27.60;56.50;;;;;;4985411;28;85884;-80
2023/07/15 10:56:53;;;;;;;3.20;1.38;;;27.60;56.60;;;;;;4983917;28;86268;-80
2023/07/15 10:59:18;;;;;;;5.40;1.45;;;27.60;57.00;;;;;;4985777;28;86789;-81
2023/07/15 11:01:45;;;;;;;2.28;1.58;;;27.70;56.50;;;;;;4983119;28;86672;-80
2023/07/15 11:04:11;;;;;;;4.78;1.15;;;27.60;55.40;;;;;;4984770;28;85787;-81
2023/07/15 11:06:37;;;;;;;6.43;1.50;;;27.30;56.30;;;;;;4982894;28;86431;-80
2023/07/15 11:09:16;;;;;;;3.75;1.45;;;27.30;57.00;;;;;;4984895;28;87489;-79
2023/07/15 11:11:42;;;;;;;3.80;1.48;;;27.20;56.90;;;;;;4984592;28;87336;-79
2023/07/15 11:14:28;;;;;;;4.60;1.40;;;27.10;57.50;;;;;;4986456;28;86387;-79
2023/07/15 11:16:56;;;;;;;4.13;1.75;;;26.90;57.50;;;;;;4983644;28;85989;-79
2023/07/15 11:19:23;;;;;;;5.22;1.67;;;26.80;57.90;;;;;;4979882;28;87003;-80
2023/07/15 11:21:51;;;;;;;2.90;1.33;;;26.70;57.90;;;;;;4980952;28;86337;-78
2023/07/15 11:24:18;;;;;;;4.93;1.58;;;26.60;58.20;;;;;;4983366;28;85949;-83
2023/07/15 11:26:44;;;;;;;5.22;1.70;;;26.70;58.50;;;;;;4979326;28;85888;-78
2023/07/15 11:29:20;;;;;;;4.22;1.30;;;26.70;59.20;;;;;;4982649;28;87851;-78
2023/07/15 11:31:49;;;;;;;4.10;1.27;;;26.70;58.70;;;;;;4977209;28;89305;-82
2023/07/15 11:34:20;;;;;;;5.30;1.30;;;26.70;59.00;;;;;;4974583;28;86241;-81
2023/07/15 11:36:46;;;;;;;4.72;1.10;;;26.70;59.20;;;;;;4977229;28;86929;-80
2023/07/15 11:39:13;;;;;;;3.15;1.40;;;26.70;56.90;;;;;;4980337;28;90958;-81
2023/07/15 11:41:39;;;;;;;3.83;1.30;;;26.50;57.90;;;;;;4981709;28;89132;-81
2023/07/15 11:44:15;;;;;;;10.60;1.70;;;26.30;57.60;;;;;;4983730;28;86241;-81
2023/07/15 11:46:43;;;;;;;5.20;1.52;;;26.20;58.80;;;;;;4982025;28;86154;-83
2023/07/15 11:49:09;;;;;;;2.70;1.30;;;26.20;58.60;;;;;;4981780;28;89141;-81
2023/07/15 11:51:37;;;;;;;1.98;1.20;;;26.30;59.50;;;;;;5001823;28;87653;-81
2023/07/15 11:54:08;;;;;;;3.50;1.48;;;26.50;58.90;;;;;;4999691;28;86658;-81
2023/07/15 11:56:35;;;;;;;4.70;1.50;;;26.60;59.20;;;;;;4983591;28;86001;-81
2023/07/15 11:59:01;;;;;;;4.57;1.60;;;26.70;58.40;;;;;;5017809;28;89103;-81
2023/07/15 12:01:27;;;;;;;4.38;1.33;;;26.60;59.40;;;;;;4993785;28;89040;-81
2023/07/15 12:03:53;;;;;;;5.93;1.50;;;26.60;58.50;;;;;;4985669;28;86372;-82
2023/07/15 12:06:22;;;;;;;2.00;1.20;;;26.50;58.50;;;;;;4986803;28;86332;-81
2023/07/15 12:09:05;;;;;;;1.80;1.20;;;26.40;59.40;;;;;;4988379;28;89838;-81
2023/07/15 12:11:32;;;;;;;4.50;1.80;;;26.40;59.00;;;;;;4991178;28;86877;-81
2023/07/15 12:13:59;;;;;;;4.18;1.92;;;26.30;59.50;;;;;;4988429;28;86335;-81
2023/07/15 12:16:25;;;;;;;3.38;1.67;;;26.30;60.40;;;;;;4986715;28;86183;-81
2023/07/15 12:18:52;;;;;;;2.58;1.55;;;26.40;59.60;;;;;;4989889;28;88493;-81
2023/07/15 12:21:19;;;;;;;2.83;1.40;;;26.30;60.00;;;;;;4989341;28;86969;-81
2023/07/15 12:23:44;;;;;;;3.97;1.58;;;26.20;60.20;;;;;;4985139;28;86082;-81
2023/07/15 12:26:10;;;;;;;5.05;1.92;;;26.20;61.00;;;;;;4987852;28;85940;-81
2023/07/15 12:28:36;;;;;;;4.97;2.25;;;26.20;61.00;;;;;;4987388;28;89609;-81
2023/07/15 12:31:02;;;;;;;4.57;1.90;;;26.10;60.10;;;;;;4978034;28;88412;-81
2023/07/15 12:33:27;;;;;;;6.95;2.00;;;26.00;60.20;;;;;;4978199;28;86418;-81
2023/07/15 12:35:53;;;;;;;8.70;2.45;;;25.90;59.60;;;;;;4987499;28;86122;-81
2023/07/15 12:38:19;;;;;;;5.68;2.30;;;25.90;58.50;;;;;;4986590;28;89774;-83
2023/07/15 12:40:45;;;;;;;3.60;1.92;;;25.90;59.20;;;;;;4993911;28;93145;-83
2023/07/15 12:43:11;;;;;;;7.03;2.00;;;26.00;59.40;;;;;;4979478;28;86184;-82
2023/07/15 12:45:37;;;;;;;8.25;1.92;;;26.20;60.40;;;;;;4988824;28;86005;-83
2023/07/15 12:48:03;;;;;;;4.63;1.70;;;26.50;60.00;;;;;;4977331;28;87898;-82